Latest Weather Observations for Jervois

IDD60801

Issued at 11:05 am CST Friday 1 August 2014 (issued every 30 minutes, with the page automatically refreshed every 10 minutes)

About weather observations | Map of weather stations | Latest weather observations for NT | Other Formats
Station Details ID: 015602 Name: JERVOIS Lat: -22.95 Lon: 136.14 Height: 328.0 m
Data from the previous 72 hours. | See also: Recent months at Jervois
Date/Time
CST
Temp
°C
App
Temp
°C
Dew
Point
Rel
Hum
%
Delta-T
°C
Wind Press
QNH
hPa
Press
MSL
hPa
Rain
since 9 am
mm
Dir
 
Spd
km/h
Gust
km/h
Spd
kts
Gust
kts
01/11:00am 17.0 10.2 3.0 39 6.5 S 28 44 15 24 1025.1 - 0.0
01/10:30am 17.0 10.2 3.0 39 6.5 S 28 43 15 23 1025.3 - 0.0
01/10:00am 16.4 9.6 3.3 41 6.1 SSE 28 43 15 23 1025.1 - 0.0
01/09:30am 15.7 9.0 3.4 43 5.7 SSE 28 43 15 23 1024.9 - 0.0
01/09:00am 15.3 8.4 2.5 42 5.8 SSE 28 41 15 22 1024.6 1024.0 0.0
01/08:30am 14.8 8.4 1.1 39 6.0 SSE 24 35 13 19 1024.0 - 0.0
01/08:00am 14.2 8.6 -0.2 37 6.1 S 19 28 10 15 1023.4 - 0.0
01/07:30am 13.1 8.3 -2.8 33 6.3 S 13 22 7 12 1022.7 - 0.0
01/07:00am 13.2 8.0 -3.1 32 6.4 S 15 20 8 11 1022.2 - 0.0
01/06:30am 13.6 8.8 -2.7 32 6.5 S 13 19 7 10 1021.5 - 0.0
01/06:00am 14.4 8.8 -3.2 29 7.0 S 17 24 9 13 1020.7 1020.3 0.0
01/05:30am 14.7 8.7 -3.4 28 7.2 S 19 28 10 15 1020.2 - 0.0
01/05:00am 14.4 8.5 -5.4 25 7.5 SSW 17 26 9 14 1019.6 - 0.0
01/04:30am 11.4 6.0 -8.0 25 6.7 WSW 13 15 7 8 1019.0 - 0.0
01/04:00am 11.5 6.1 -8.9 23 6.9 WSW 13 17 7 9 1018.5 - 0.0
01/03:30am 13.6 9.5 -7.1 23 7.5 W 7 9 4 5 1018.0 - 0.0
01/03:00am 12.1 8.1 -5.5 29 6.5 W 7 9 4 5 1018.1 1017.6 0.0
01/02:30am 12.4 8.3 -6.8 25 6.9 W 7 11 4 6 1018.2 - 0.0
01/02:00am 12.4 8.6 -5.8 27 6.7 W 6 7 3 4 1018.2 - 0.0
01/01:30am 12.4 8.4 -5.8 27 6.7 W 7 7 4 4 1018.4 - 0.0
01/01:00am 10.7 6.2 -7.0 28 6.2 WSW 9 9 5 5 1018.5 - 0.0
01/12:30am 11.0 6.9 -6.9 28 6.3 WSW 7 9 4 5 1018.5 - 0.0
01/12:00am 11.1 8.4 -6.2 29 6.2 WNW 0 0 0 0 1018.4 1018.2 0.0
 
Date/Time
CST
Temp
°C
App
Temp
°C
Dew
Point
Rel
Hum
%
Delta-T
°C
Wind Press
QNH
hPa
Press
MSL
hPa
Rain
since 9 am
mm
Dir
 
Spd
km/h
Gust
km/h
Spd
kts
Gust
kts
31/11:30pm 10.8 8.1 -5.9 30 6.0 CALM 0 0 0 0 1018.5 - 0.0
31/11:00pm 11.5 8.6 -7.8 25 6.7 NNE 0 0 0 0 1018.5 - 0.0
31/10:30pm 12.3 9.7 -5.1 29 6.5 CALM 0 0 0 0 1018.4 - 0.0
31/10:00pm 13.0 10.3 -6.0 26 7.0 CALM 0 0 0 0 1018.3 - 0.0
31/09:30pm 14.2 11.7 -4.4 27 7.2 NE 0 0 0 0 1018.1 - 0.0
31/09:00pm 15.0 12.4 -5.0 25 7.7 CALM 0 0 0 0 1017.8 1017.7 0.0
31/08:30pm 15.3 12.8 -4.3 25 7.7 CALM 0 0 0 0 1017.6 - 0.0
31/08:00pm 16.0 13.2 -2.9 27 7.7 S 2 6 1 3 1017.3 - 0.0
31/07:30pm 17.2 13.5 -4.7 22 8.7 S 6 7 3 4 1017.0 - 0.0
31/07:00pm 18.5 15.8 -6.0 18 9.6 CALM 0 2 0 1 1016.6 - 0.0
31/06:30pm 21.8 19.6 -1.4 21 10.3 CALM 0 0 0 0 1016.3 - 0.0
31/06:00pm 25.5 23.6 0.7 19 11.8 CALM 0 0 0 0 1016.1 1015.9 0.0
31/05:30pm 27.1 22.9 -9.9 8 14.7 SW 6 13 3 7 1016.0 - 0.0
31/05:00pm 27.3 21.7 -11.4 7 15.0 S 13 20 7 11 1015.9 - 0.0
31/04:30pm 28.0 23.9 -8.5 8 15.0 NW 6 11 3 6 1016.0 - 0.0
31/04:00pm 28.0 23.3 -9.3 8 15.1 SW 9 20 5 11 1016.1 - 0.0
31/03:30pm 28.1 22.5 -11.2 7 15.4 SW 13 26 7 14 1016.2 - 0.0
31/03:00pm 28.3 21.5 -12.0 6 15.6 W 19 30 10 16 1016.5 1016.3 0.0
31/02:30pm 27.8 22.2 -11.7 7 15.3 SW 13 26 7 14 1016.8 - 0.0
31/02:00pm 27.5 21.9 -11.4 7 15.1 SSW 13 24 7 13 1017.1 - 0.0
31/01:30pm 27.0 20.9 -13.0 6 15.0 SSW 15 24 8 13 1017.7 - 0.0
31/01:00pm 26.9 20.8 -12.6 6 14.9 W 15 22 8 12 1018.4 - 0.0
31/12:30pm 27.2 21.5 -13.0 6 15.1 WSW 13 24 7 13 1018.9 - 0.0
31/12:00pm 25.7 20.4 -12.1 7 14.2 W 11 19 6 10 1019.5 1019.4 0.0
31/11:30am 26.1 21.9 -8.3 10 13.9 NNW 7 13 4 7 1020.0 - 0.0
31/11:00am 24.2 20.5 -8.4 11 12.9 NW 4 9 2 5 1020.5 - 0.0
31/10:30am 23.1 18.9 -7.6 12 12.2 NE 7 11 4 6 1020.8 - 0.0
31/10:00am 21.8 17.5 -8.7 12 11.7 NE 7 13 4 7 1021.0 - 0.0
31/09:30am 18.7 15.9 -6.6 17 9.8 CALM 0 0 0 0 1021.2 - 0.0
31/09:00am 15.4 12.1 -8.7 18 8.6 SW 2 7 1 4 1021.0 1020.9 0.0
31/08:30am 12.7 9.7 -8.8 21 7.4 CALM 0 0 0 0 1020.8 - 0.0
31/08:00am 9.6 5.3 -9.5 25 6.2 WSW 7 9 4 5 1020.7 - 0.0
31/07:30am 7.7 3.4 -9.3 29 5.4 SW 7 9 4 5 1020.5 - 0.0
31/07:00am 6.6 2.9 -8.4 33 4.8 SW 4 9 2 5 1020.2 - 0.0
31/06:30am 8.7 3.6 -9.8 26 5.9 NNW 11 17 6 9 1020.0 - 0.0
31/06:00am 8.2 2.8 -8.7 29 5.5 NNW 13 17 7 9 1019.7 1019.6 0.0
31/05:30am 7.2 3.0 -8.2 32 5.0 N 7 9 4 5 1019.6 - 0.0
31/05:00am 7.7 3.4 -8.7 30 5.3 SW 7 11 4 6 1019.5 - 0.0
31/04:30am 9.7 5.0 -9.8 24 6.3 SSW 9 13 5 7 1019.6 - 0.0
31/04:00am 6.2 2.4 -10.3 29 5.0 N 4 9 2 5 1019.6 - 0.0
31/03:30am 5.8 2.8 -9.5 32 4.7 CALM 0 0 0 0 1019.6 - 0.0
31/03:00am 7.0 4.1 -8.6 32 5.0 CALM 0 0 0 0 1019.8 1019.6 0.0
31/02:30am 7.8 4.9 -8.5 30 5.3 CALM 0 0 0 0 1020.0 - 0.0
31/02:00am 8.7 4.6 -8.2 29 5.6 NNE 6 9 3 5 1020.2 - 0.0
31/01:30am 10.0 6.7 -8.0 27 6.1 ESE 2 6 1 3 1020.3 - 0.0
31/01:00am 11.2 7.3 -4.7 32 5.9 SE 7 11 4 6 1020.4 - 0.0
31/12:30am 10.3 6.1 -7.9 27 6.2 S 7 9 4 5 1020.3 - 0.0
31/12:00am 11.7 7.5 -7.4 25 6.7 SSE 7 9 4 5 1020.5 1020.4 0.0
 
Date/Time
CST
Temp
°C
App
Temp
°C
Dew
Point
Rel
Hum
%
Delta-T
°C
Wind Press
QNH
hPa
Press
MSL
hPa
Rain
since 9 am
mm
Dir
 
Spd
km/h
Gust
km/h
Spd
kts
Gust
kts
30/11:30pm 13.1 8.6 -6.8 24 7.2 SSE 9 11 5 6 1020.5 - 0.0
30/11:00pm 14.4 9.9 -6.8 22 7.8 SSE 9 11 5 6 1020.6 - 0.0
30/10:30pm 15.4 10.8 -8.1 19 8.5 SSE 9 13 5 7 1020.8 - 0.0
30/10:00pm 15.5 11.4 -6.8 21 8.3 SSE 7 11 4 6 1020.8 - 0.0
30/09:30pm 16.3 11.3 -8.0 18 8.9 SSE 11 13 6 7 1020.9 - 0.0
30/09:00pm 16.6 12.0 -7.8 18 9.0 S 9 13 5 7 1020.8 1020.7 0.0
30/08:30pm 17.2 12.6 -8.4 16 9.4 S 9 11 5 6 1020.7 - 0.0
30/08:00pm 17.3 13.2 -7.0 18 9.2 S 7 9 4 5 1020.6 - 0.0
30/07:30pm 18.8 14.3 -6.9 17 9.9 SE 9 11 5 6 1020.3 - 0.0
30/07:00pm 19.4 15.4 -5.8 17 10.0 SE 7 9 4 5 1019.9 - 0.0
30/06:30pm 20.6 16.6 -5.8 16 10.6 SE 7 9 4 5 1019.5 - 0.0
30/06:00pm 22.6 18.1 -7.3 13 11.9 SE 9 13 5 7 1019.3 1019.1 0.0
30/05:30pm 23.9 18.8 -9.4 10 12.9 SE 11 19 6 10 1019.2 - 0.0
30/05:00pm 24.3 19.5 -10.0 9 13.2 E 9 15 5 8 1019.1 - 0.0
30/04:30pm 24.6 19.0 -11.1 8 13.5 ESE 13 19 7 10 1019.0 - 0.0
30/04:00pm 25.3 19.4 -9.8 9 13.7 SSE 15 20 8 11 1019.1 - 0.0
30/03:30pm 25.0 19.8 -11.0 8 13.7 SE 11 20 6 11 1019.4 - 0.0
30/03:00pm 25.2 19.3 -10.2 9 13.7 ESE 15 26 8 14 1019.6 1019.4 0.0
30/02:30pm 24.9 18.6 -10.7 8 13.6 E 17 26 9 14 1020.0 - 0.0
30/02:00pm 24.5 17.7 -11.6 8 13.5 SE 19 30 10 16 1020.3 - 0.0
30/01:30pm 25.1 18.4 -10.7 8 13.7 SE 19 26 10 14 1020.7 - 0.0
30/01:00pm 24.9 18.2 -10.8 8 13.6 E 19 32 10 17 1021.4 - 0.0
30/12:30pm 24.4 17.8 -9.1 10 13.1 E 19 28 10 15 1021.9 - 0.0
30/12:00pm 23.5 16.9 -8.9 11 12.6 ESE 19 30 10 16 1022.3 1022.1 0.0
30/11:30am 23.4 16.7 -7.9 12 12.4 ESE 20 30 11 16 1022.9 - 0.0
30/11:00am 22.9 16.7 -9.0 11 12.3 E 17 26 9 14 1023.4 - 0.0
30/10:30am 22.5 16.4 -7.8 12 12.0 E 17 24 9 13 1023.7 - 0.0
30/10:00am 21.4 15.6 -8.1 13 11.4 ENE 15 20 8 11 1023.8 - 0.0
30/09:30am 20.3 14.6 -7.9 14 10.9 ENE 15 20 8 11 1023.8 - 0.0
30/09:00am 18.2 12.9 -7.5 16 9.7 ENE 13 20 7 11 1023.6 1023.5 0.0
30/08:30am 15.4 11.3 -6.6 21 8.2 ENE 7 13 4 7 1023.4 - 0.0
30/08:24am 14.3 11.3 -5.6 25 7.5 S 2 9 1 5 1023.4 - 0.0
30/08:00am 9.0 6.3 -5.8 34 5.2 CALM 0 4 0 2 1023.2 - 0.0
30/07:30am 5.4 2.6 -7.3 39 4.1 CALM 0 0 0 0 1022.8 - 0.0
30/07:00am 4.7 1.9 -7.1 42 3.8 CALM 0 0 0 0 1022.5 - 0.0
30/06:30am 5.1 2.3 -6.9 41 3.9 CALM 0 0 0 0 1022.5 - 0.0
30/06:00am 5.4 2.5 -7.8 38 4.2 CALM 0 0 0 0 1022.3 1022.1 0.0
30/05:30am 5.5 1.9 -7.6 38 4.2 SSE 4 7 2 4 1022.1 - 0.0
30/05:00am 5.7 2.9 -7.2 39 4.2 CALM 0 0 0 0 1022.2 - 0.0
30/04:30am 6.3 3.6 -6.2 40 4.2 CALM 0 0 0 0 1022.3 - 0.0
30/04:00am 6.6 3.9 -6.1 40 4.3 CALM 0 0 0 0 1022.4 - 0.0
30/03:30am 7.6 5.0 -5.2 40 4.5 CALM 0 0 0 0 1022.4 - 0.0
30/03:00am 8.9 6.2 -5.5 35 5.1 CALM 0 0 0 0 1022.6 1022.4 0.0
30/02:30am 9.6 5.9 -4.7 36 5.2 ESE 6 7 3 4 1022.6 - 0.0
30/02:00am 10.2 6.3 -4.9 34 5.5 SE 7 9 4 5 1022.9 - 0.0
30/01:30am 10.9 7.2 -4.4 34 5.7 SSE 6 7 3 4 1023.1 - 0.0
30/01:00am 11.9 8.3 -3.4 34 5.9 SSE 6 7 3 4 1023.1 - 0.0
30/12:30am 13.4 9.8 -2.3 33 6.3 ESE 7 9 4 5 1023.0 - 0.0
30/12:00am 14.3 10.5 -3.4 29 7.0 SE 7 9 4 5 1023.0 1022.9 0.0
 
Date/Time
CST
Temp
°C
App
Temp
°C
Dew
Point
Rel
Hum
%
Delta-T
°C
Wind Press
QNH
hPa
Press
MSL
hPa
Rain
since 9 am
mm
Dir
 
Spd
km/h
Gust
km/h
Spd
kts
Gust
kts
29/11:30pm 14.9 10.6 -5.3 24 7.7 ESE 9 11 5 6 1023.0 - 0.0
29/11:00pm 15.0 11.3 -3.3 28 7.3 SE 7 9 4 5 1023.1 - 0.0
29/10:30pm 15.7 11.3 -5.4 23 8.1 SSE 9 13 5 7 1023.2 - 0.0
29/10:00pm 15.8 11.4 -5.6 22 8.2 S 9 11 5 6 1023.3 - 0.0
29/09:30pm 16.9 12.5 -6.0 20 8.8 SSE 9 13 5 7 1023.3 - 0.0
29/09:00pm 17.4 13.1 -4.8 21 8.8 SE 9 11 5 6 1023.2 1023.0 0.0
29/08:30pm 18.6 13.8 -5.9 18 9.6 SE 11 13 6 7 1022.8 - 0.0
29/08:00pm 18.8 14.5 -4.9 19 9.5 SE 9 11 5 6 1022.5 - 0.0
29/07:30pm 19.8 15.4 -5.4 18 10.1 SE 9 13 5 7 1022.2 - 0.0
29/07:00pm 20.8 16.4 -5.8 16 10.7 SE 9 15 5 8 1021.9 - 0.0
29/06:30pm 22.1 17.2 -7.1 13 11.6 SE 11 15 6 8 1021.6 - 0.0
29/06:00pm 23.4 17.6 -9.2 10 12.6 SE 15 26 8 14 1021.2 1021.0 0.0
29/05:30pm 24.4 18.1 -9.7 9 13.2 SE 17 28 9 15 1020.7 - 0.0
29/05:00pm 24.8 18.1 -10.4 9 13.5 ESE 19 33 10 18 1020.4 - 0.0
29/04:30pm 25.3 18.6 -10.6 8 13.8 SE 19 28 10 15 1020.2 - 0.0
29/04:00pm 25.5 18.6 -10.6 8 13.9 SE 20 35 11 19 1020.1 - 0.0
29/03:30pm 25.9 19.3 -9.7 9 14.0 ESE 19 32 10 17 1020.1 - 0.0
29/03:00pm 25.6 18.8 -8.7 10 13.7 SE 20 35 11 19 1020.2 1020.0 0.0
29/02:30pm 25.3 17.4 -9.2 9 13.6 ESE 26 44 14 24 1020.3 - 0.0
29/02:00pm 25.5 17.9 -9.9 9 13.8 SE 24 39 13 21 1020.7 - 0.0
29/01:30pm 25.5 19.3 -9.2 9 13.7 SE 17 28 9 15 1021.2 - 0.0
29/01:00pm 25.0 18.3 -7.6 11 13.2 SSE 20 28 11 15 1021.7 - 0.0
29/12:30pm 24.7 17.6 -8.7 10 13.2 ESE 22 32 12 17 1022.3 - 0.0
29/12:00pm 24.3 17.2 -8.8 10 13.0 ESE 22 32 12 17 1022.8 1022.6 0.0
29/11:30am 23.9 17.6 -10.3 9 13.1 ESE 17 22 9 12 1023.1 - 0.0

Other Formats:

Comma delimited format used in spreadsheet applications
http://www.bom.gov.au/fwo/IDD60801/IDD60801.94327.axf

JavaScript Object Notation format (JSON) in row-major order
http://www.bom.gov.au/fwo/IDD60801/IDD60801.94327.json